createdAt,value
2022-12-06T00:01:28.888Z,100263.50
2022-12-06T00:03:58.171Z,100255.22
2022-12-06T00:06:27.609Z,100255.78
2022-12-06T00:08:55.468Z,100252.56
2022-12-06T00:11:27.114Z,100250.75
2022-12-06T00:13:55.537Z,100250.59
2022-12-06T00:16:23.652Z,100252.69
2022-12-06T00:18:52.618Z,100257.13
2022-12-06T00:21:22.034Z,100258.78
2022-12-06T00:23:51.992Z,100245.69
2022-12-06T00:26:21.316Z,100241.97
2022-12-06T00:28:49.343Z,100242.09
2022-12-06T00:31:18.799Z,100245.69
2022-12-06T00:33:46.360Z,100236.63
2022-12-06T00:36:18.408Z,100237.63
2022-12-06T00:38:46.251Z,100239.72
2022-12-06T00:41:15.313Z,100239.28
2022-12-06T00:43:43.068Z,100239.00
2022-12-06T00:46:13.951Z,100236.09
2022-12-06T00:48:42.510Z,100229.53
2022-12-06T00:51:10.071Z,100229.28
2022-12-06T00:53:38.838Z,100230.16
2022-12-06T00:56:06.907Z,100225.91
2022-12-06T00:58:34.553Z,100228.72
2022-12-06T01:01:09.205Z,100224.63
2022-12-06T01:03:37.260Z,100225.38
2022-12-06T01:06:05.690Z,100231.16
2022-12-06T01:08:33.967Z,100235.97
2022-12-06T01:11:03.765Z,100235.00
2022-12-06T01:13:31.391Z,100234.56
2022-12-06T01:16:05.741Z,100234.78
2022-12-06T01:18:33.202Z,100240.50
2022-12-06T01:21:04.607Z,100237.47
2022-12-06T01:23:32.002Z,100236.19
2022-12-06T01:25:59.475Z,100237.88
2022-12-06T01:28:28.244Z,100235.88
2022-12-06T01:30:55.826Z,100234.78
2022-12-06T01:33:23.749Z,100240.34
2022-12-06T01:35:51.278Z,100235.47
2022-12-06T01:38:18.966Z,100238.81
2022-12-06T01:40:48.679Z,100236.16
2022-12-06T01:43:37.379Z,100237.03
2022-12-06T01:46:11.663Z,100244.34
2022-12-06T01:48:41.422Z,100236.09
2022-12-06T01:51:10.335Z,100232.81
2022-12-06T01:53:38.132Z,100233.72
2022-12-06T01:56:06.185Z,100230.25
2022-12-06T01:58:39.379Z,100225.84
2022-12-06T02:01:08.058Z,100229.31
2022-12-06T02:03:36.531Z,100226.38
2022-12-06T02:06:06.057Z,100216.66
2022-12-06T02:08:34.469Z,100219.19
2022-12-06T02:11:02.802Z,100219.13
2022-12-06T02:13:31.538Z,100221.06
2022-12-06T02:16:06.566Z,100222.97
2022-12-06T02:18:36.455Z,100220.97
2022-12-06T02:21:13.429Z,100219.53
2022-12-06T02:24:09.948Z,100215.59
2022-12-06T02:26:40.540Z,100211.66
2022-12-06T02:29:46.731Z,100216.56
2022-12-06T02:32:18.542Z,100211.19
2022-12-06T02:34:48.648Z,100211.78
2022-12-06T02:37:24.018Z,100208.78
2022-12-06T02:39:56.260Z,100209.50
2022-12-06T02:42:25.737Z,100211.19
2022-12-06T02:44:55.062Z,100201.06
2022-12-06T02:47:28.482Z,100205.22
2022-12-06T02:49:57.220Z,100198.78
2022-12-06T02:52:27.135Z,100203.91
2022-12-06T02:54:56.640Z,100200.59
2022-12-06T02:57:34.880Z,100194.59
2022-12-06T03:00:02.913Z,100184.69
2022-12-06T03:02:33.682Z,100188.78
2022-12-06T03:05:11.047Z,100186.25
2022-12-06T03:07:41.607Z,100191.50
2022-12-06T03:10:28.883Z,100192.81
2022-12-06T03:13:03.095Z,100184.94
2022-12-06T03:15:38.061Z,100188.41
2022-12-06T03:18:12.093Z,100183.41
2022-12-06T03:20:43.646Z,100190.09
2022-12-06T03:23:14.870Z,100191.03
2022-12-06T03:25:43.183Z,100181.59
2022-12-06T03:28:12.535Z,100193.31
2022-12-06T03:30:41.957Z,100188.78
2022-12-06T03:33:11.182Z,100186.84
2022-12-06T03:35:40.762Z,100189.84
2022-12-06T03:38:14.535Z,100184.22
2022-12-06T03:40:45.093Z,100192.56
2022-12-06T03:43:12.615Z,100191.13
2022-12-06T03:45:44.541Z,100190.19
2022-12-06T03:48:15.110Z,100189.13
2022-12-06T03:50:45.071Z,100189.72
2022-12-06T03:53:12.602Z,100183.25
2022-12-06T03:55:42.170Z,100180.63
2022-12-06T03:58:09.597Z,100182.09
2022-12-06T04:00:37.016Z,100188.53
2022-12-06T04:03:04.547Z,100188.53
2022-12-06T04:05:33.306Z,100187.69
2022-12-06T04:08:00.751Z,100178.97
2022-12-06T04:10:28.372Z,100188.66
2022-12-06T04:13:02.150Z,100182.09
2022-12-06T04:15:30.930Z,100179.13
2022-12-06T04:18:16.368Z,100184.69
2022-12-06T04:21:05.632Z,100178.63
2022-12-06T04:23:36.195Z,100179.81
2022-12-06T04:26:08.265Z,100180.91
2022-12-06T04:28:53.638Z,100178.38
2022-12-06T04:31:38.364Z,100177.53
2022-12-06T04:34:23.706Z,100181.84
2022-12-06T04:37:09.960Z,100176.13
2022-12-06T04:39:37.404Z,100175.84
2022-12-06T04:42:23.046Z,100173.97
2022-12-06T04:44:50.514Z,100163.09
2022-12-06T04:47:18.517Z,100160.84
2022-12-06T04:49:46.075Z,100164.19
2022-12-06T04:52:15.427Z,100159.91
2022-12-06T04:54:43.045Z,100167.66
2022-12-06T04:57:12.043Z,100168.97
2022-12-06T04:59:40.775Z,100170.03
2022-12-06T05:02:09.971Z,100159.41
2022-12-06T05:04:37.394Z,100162.03
2022-12-06T05:07:06.348Z,100151.31
2022-12-06T05:09:35.147Z,100152.75
2022-12-06T05:12:02.594Z,100161.09
2022-12-06T05:14:30.210Z,100154.66
2022-12-06T05:16:58.837Z,100154.06
2022-12-06T05:19:27.220Z,100154.88
2022-12-06T05:21:54.673Z,100153.44
2022-12-06T05:24:22.198Z,100154.19
2022-12-06T05:26:50.974Z,100157.13
2022-12-06T05:29:19.712Z,100165.84
2022-12-06T05:31:47.434Z,100159.66
2022-12-06T05:34:14.943Z,100152.00
2022-12-06T05:36:44.761Z,100155.34
2022-12-06T05:39:12.300Z,100159.66
2022-12-06T05:41:39.818Z,100145.56
2022-12-06T05:44:10.543Z,100139.38
2022-12-06T05:46:38.016Z,100143.78
2022-12-06T05:49:06.016Z,100142.72
2022-12-06T05:51:33.862Z,100150.72
2022-12-06T05:54:03.340Z,100142.72
2022-12-06T05:56:30.776Z,100143.19
2022-12-06T05:58:58.198Z,100145.81
2022-12-06T06:01:26.984Z,100147.03
2022-12-06T06:03:54.550Z,100144.13
2022-12-06T06:06:22.439Z,100146.41
2022-12-06T06:08:49.967Z,100144.84
2022-12-06T06:11:17.434Z,100141.88
2022-12-06T06:13:44.878Z,100138.41
2022-12-06T06:16:12.366Z,100142.59
2022-12-06T06:18:41.209Z,100137.13
2022-12-06T06:21:08.712Z,100133.88
2022-12-06T06:23:36.172Z,100135.69
2022-12-06T06:26:07.894Z,100131.28
2022-12-06T06:28:35.364Z,100139.63
2022-12-06T06:31:03.503Z,100138.31
2022-12-06T06:33:30.968Z,100138.16
2022-12-06T06:36:00.086Z,100138.66
2022-12-06T06:38:27.521Z,100140.34
2022-12-06T06:40:55.992Z,100133.38
2022-12-06T06:43:23.508Z,100141.66
2022-12-06T06:45:55.253Z,100149.03
2022-12-06T06:48:23.515Z,100150.25
2022-12-06T06:50:56.919Z,100141.72
2022-12-06T06:53:27.536Z,100145.19
2022-12-06T06:55:55.511Z,100145.41
2022-12-06T06:58:22.995Z,100150.81
2022-12-06T07:00:53.507Z,100151.03
2022-12-06T07:03:21.047Z,100145.56
2022-12-06T07:05:52.810Z,100152.72
2022-12-06T07:08:20.427Z,100150.44
2022-12-06T07:10:49.576Z,100151.13
2022-12-06T07:13:17.048Z,100153.16
2022-12-06T07:15:44.547Z,100155.78
2022-12-06T07:18:11.994Z,100149.09
2022-12-06T07:20:39.591Z,100152.59
2022-12-06T07:23:07.022Z,100156.28
2022-12-06T07:25:35.445Z,100160.00
2022-12-06T07:28:04.737Z,100158.91
2022-12-06T07:30:34.231Z,100154.72
2022-12-06T07:33:02.004Z,100159.38
2022-12-06T07:35:48.423Z,100154.81
2022-12-06T07:38:16.929Z,100165.69
2022-12-06T07:43:50.702Z,100165.75
2022-12-06T07:46:18.273Z,100165.88
2022-12-06T07:48:45.823Z,100174.84
2022-12-06T07:51:13.293Z,100170.78
2022-12-06T07:53:43.215Z,100174.41
2022-12-06T07:56:10.819Z,100173.19
2022-12-06T07:58:41.233Z,100173.22
2022-12-06T08:01:08.780Z,100173.22
2022-12-06T08:03:36.292Z,100175.59
2022-12-06T08:06:03.865Z,100172.47
2022-12-06T08:08:31.804Z,100176.88
2022-12-06T08:10:59.915Z,100185.34
2022-12-06T08:13:27.496Z,100184.38
2022-12-06T08:15:57.017Z,100187.97
2022-12-06T08:18:25.595Z,100185.44
2022-12-06T08:20:53.696Z,100189.41
2022-12-06T08:23:21.171Z,100192.13
2022-12-06T08:25:48.623Z,100192.94
2022-12-06T08:28:16.079Z,100197.75
2022-12-06T08:30:43.764Z,100200.06
2022-12-06T08:33:12.631Z,100197.00
2022-12-06T08:35:40.135Z,100201.50
2022-12-06T08:38:07.648Z,100202.91
2022-12-06T08:40:35.108Z,100209.25
2022-12-06T08:43:02.605Z,100207.47
2022-12-06T08:45:30.043Z,100207.91
2022-12-06T08:47:57.479Z,100197.50
2022-12-06T08:50:26.330Z,100208.78
2022-12-06T08:52:54.068Z,100208.66
2022-12-06T08:55:21.590Z,100212.00
2022-12-06T08:57:49.024Z,100204.47
2022-12-06T09:00:20.576Z,100207.09
2022-12-06T09:02:48.011Z,100206.00
2022-12-06T09:05:15.623Z,100208.19
2022-12-06T09:07:44.501Z,100205.75
2022-12-06T09:10:12.671Z,100212.13
2022-12-06T09:12:40.080Z,100213.38
2022-12-06T09:15:08.302Z,100208.88
2022-12-06T09:17:36.583Z,100213.81
2022-12-06T09:20:09.050Z,100211.81
2022-12-06T09:22:36.747Z,100216.78
2022-12-06T09:25:06.287Z,100218.84
2022-12-06T09:27:33.698Z,100209.00
2022-12-06T09:30:01.649Z,100209.91
2022-12-06T09:32:29.863Z,100222.06
2022-12-06T09:34:57.359Z,100210.19
2022-12-06T09:37:24.917Z,100216.63
2022-12-06T09:39:55.495Z,100208.91
2022-12-06T09:42:47.328Z,100217.25
2022-12-06T09:45:27.940Z,100213.91
2022-12-06T09:48:28.568Z,100211.19
2022-12-06T09:51:06.350Z,100220.97
2022-12-06T09:53:44.207Z,100207.16
2022-12-06T09:56:16.674Z,100204.56
2022-12-06T09:58:55.100Z,100201.13
2022-12-06T10:01:28.321Z,100198.81
2022-12-06T10:04:05.664Z,100194.47
2022-12-06T10:06:39.939Z,100196.66
2022-12-06T10:09:18.464Z,100191.59
2022-12-06T10:11:58.138Z,100184.31
2022-12-06T10:14:41.306Z,100181.44
2022-12-06T10:17:13.448Z,100185.25
2022-12-06T10:19:51.273Z,100178.38
2022-12-06T10:22:23.652Z,100180.53
2022-12-06T10:24:58.678Z,100178.03
2022-12-06T10:27:31.311Z,100176.38
2022-12-06T10:30:05.330Z,100167.09
2022-12-06T10:32:52.775Z,100172.50
2022-12-06T10:35:32.256Z,100170.03
2022-12-06T10:38:07.424Z,100167.97
2022-12-06T10:40:46.453Z,100160.03
2022-12-06T10:43:19.521Z,100167.50
2022-12-06T10:46:09.397Z,100161.81
2022-12-06T10:48:40.519Z,100166.09
2022-12-06T10:51:12.315Z,100159.28
2022-12-06T10:53:43.787Z,100164.72
2022-12-06T10:56:15.833Z,100165.41
2022-12-06T10:58:46.574Z,100159.34
2022-12-06T11:01:18.965Z,100155.72
2022-12-06T11:03:58.700Z,100157.97
2022-12-06T11:06:32.177Z,100152.84
2022-12-06T11:09:06.308Z,100155.63
2022-12-06T11:11:35.576Z,100159.53
2022-12-06T11:14:05.810Z,100156.78
2022-12-06T11:16:39.387Z,100151.94
2022-12-06T11:19:26.431Z,100149.56
2022-12-06T11:21:57.551Z,100151.66
2022-12-06T11:24:29.307Z,100155.25
2022-12-06T11:27:01.634Z,100148.84
2022-12-06T11:29:29.805Z,100147.97
2022-12-06T11:32:01.223Z,100149.38
2022-12-06T11:34:31.984Z,100141.44
2022-12-06T11:37:00.559Z,100142.84
2022-12-06T11:39:28.792Z,100143.53
2022-12-06T11:41:57.511Z,100144.53
2022-12-06T11:44:27.784Z,100142.44
2022-12-06T11:46:56.953Z,100136.34
2022-12-06T11:49:29.136Z,100142.59
2022-12-06T11:51:56.904Z,100138.31
2022-12-06T11:54:27.713Z,100136.91
2022-12-06T11:56:58.956Z,100140.38
2022-12-06T11:59:28.461Z,100146.91
2022-12-06T12:01:57.618Z,100144.69
2022-12-06T12:04:38.192Z,100147.28
2022-12-06T12:07:12.999Z,100143.53
2022-12-06T12:09:51.842Z,100144.25
2022-12-06T12:12:21.403Z,100144.53
2022-12-06T12:14:55.063Z,100133.44
2022-12-06T12:17:24.419Z,100144.13
2022-12-06T12:19:58.940Z,100138.03
2022-12-06T12:22:31.283Z,100135.91
2022-12-06T12:27:48.902Z,100140.53
2022-12-06T12:30:32.343Z,100136.06
2022-12-06T12:33:30.147Z,100133.00
2022-12-06T12:36:14.432Z,100129.66
2022-12-06T12:38:43.648Z,100126.91
2022-12-06T12:41:26.099Z,100124.53
2022-12-06T12:44:35.903Z,100127.41
2022-12-06T12:46:51.929Z,100124.13
2022-12-06T12:49:25.442Z,100127.47
2022-12-06T12:51:54.274Z,100116.50
2022-12-06T12:54:27.043Z,100110.53
2022-12-06T12:56:54.868Z,100114.97
2022-12-06T12:59:24.115Z,100103.31
2022-12-06T13:01:54.237Z,100101.75
2022-12-06T13:04:31.816Z,100111.22
2022-12-06T13:07:03.015Z,100112.22
2022-12-06T13:09:34.363Z,100118.03
2022-12-06T13:12:05.667Z,100114.41
2022-12-06T13:14:34.303Z,100126.50
2022-12-06T13:17:07.026Z,100114.72
2022-12-06T13:19:36.879Z,100114.59
2022-12-06T13:22:06.514Z,100111.66
2022-12-06T13:24:34.506Z,100115.97
2022-12-06T13:27:04.443Z,100105.28
2022-12-06T13:29:35.340Z,100117.06
2022-12-06T13:32:07.489Z,100102.22
2022-12-06T13:34:38.476Z,100104.88
2022-12-06T13:37:27.053Z,100111.66
2022-12-06T13:39:56.513Z,100109.97
2022-12-06T13:42:41.918Z,100107.72
2022-12-06T13:45:40.798Z,100108.84
2022-12-06T13:48:38.171Z,100103.84
2022-12-06T13:51:10.881Z,100108.00
2022-12-06T13:54:36.451Z,100112.81
2022-12-06T13:57:22.833Z,100111.59
2022-12-06T13:59:50.337Z,100112.81
2022-12-06T14:02:44.724Z,100112.66
2022-12-06T14:08:17.146Z,100116.84
2022-12-06T14:10:44.783Z,100117.81
2022-12-06T14:13:21.771Z,100115.56
2022-12-06T14:15:51.478Z,100112.94
2022-12-06T14:18:21.910Z,100114.19
2022-12-06T14:20:50.768Z,100113.47
2022-12-06T14:23:27.098Z,100107.50
2022-12-06T14:26:16.275Z,100111.28
2022-12-06T14:28:45.086Z,100102.41
2022-12-06T14:31:20.980Z,100106.72
2022-12-06T14:33:49.063Z,100102.25
2022-12-06T14:36:20.471Z,100096.97
2022-12-06T14:38:57.596Z,100097.41
2022-12-06T14:41:48.603Z,100093.94
2022-12-06T14:44:19.406Z,100095.03
2022-12-06T14:46:47.953Z,100094.19
2022-12-06T14:49:36.265Z,100094.63
2022-12-06T14:52:04.143Z,100099.19
2022-12-06T14:54:34.889Z,100105.31
2022-12-06T14:57:02.587Z,100101.38
2022-12-06T15:02:23.272Z,100099.63
2022-12-06T15:04:51.866Z,100095.56
2022-12-06T15:07:33.770Z,100102.53
2022-12-06T15:10:10.897Z,100100.56
2022-12-06T15:12:55.966Z,100094.75
2022-12-06T15:15:36.787Z,100105.63
2022-12-06T15:18:13.725Z,100112.28
2022-12-06T15:20:41.808Z,100108.25
2022-12-06T15:23:28.744Z,100112.72
2022-12-06T15:25:56.296Z,100109.47
2022-12-06T15:28:23.919Z,100109.47
2022-12-06T15:30:52.969Z,100112.78
2022-12-06T15:33:22.650Z,100105.03
2022-12-06T15:35:51.029Z,100111.75
2022-12-06T15:38:19.114Z,100104.25
2022-12-06T15:40:48.620Z,100118.31
2022-12-06T15:43:24.692Z,100112.88
2022-12-06T15:45:54.845Z,100110.34
2022-12-06T15:48:22.808Z,100104.81
2022-12-06T15:50:50.187Z,100105.25
2022-12-06T15:53:20.408Z,100097.25
2022-12-06T15:55:48.119Z,100093.09
2022-12-06T15:58:15.651Z,100092.00
2022-12-06T16:00:43.517Z,100091.66
2022-12-06T16:03:12.334Z,100100.66
2022-12-06T16:05:40.139Z,100091.09
2022-12-06T16:08:07.629Z,100088.03
2022-12-06T16:11:03.393Z,100090.75
2022-12-06T16:13:23.547Z,100092.44
2022-12-06T16:15:52.576Z,100086.84
2022-12-06T16:18:22.019Z,100092.88
2022-12-06T16:20:49.528Z,100087.13
2022-12-06T16:24:10.915Z,100091.50
2022-12-06T16:26:24.254Z,100090.16
2022-12-06T16:28:51.680Z,100093.66
2022-12-06T16:31:19.115Z,100091.44
2022-12-06T16:33:47.901Z,100087.75
2022-12-06T16:36:19.036Z,100086.13
2022-12-06T16:38:47.823Z,100080.72
2022-12-06T16:41:19.936Z,100083.34
2022-12-06T16:43:47.484Z,100080.72
2022-12-06T16:46:22.557Z,100079.72
2022-12-06T16:48:55.718Z,100071.09
2022-12-06T16:51:23.992Z,100073.34
2022-12-06T16:53:51.520Z,100078.06
2022-12-06T16:56:19.253Z,100074.63
2022-12-06T16:58:46.695Z,100073.16
2022-12-06T17:01:42.227Z,100075.38
2022-12-06T17:04:11.224Z,100073.28
2022-12-06T17:06:41.482Z,100071.06
2022-12-06T17:09:09.043Z,100076.31
2022-12-06T17:11:54.510Z,100064.03
2022-12-06T17:14:25.030Z,100068.28
2022-12-06T17:16:53.350Z,100072.34
2022-12-06T17:19:23.954Z,100074.19
2022-12-06T17:21:53.031Z,100074.78
2022-12-06T17:24:21.534Z,100068.81
2022-12-06T17:26:49.359Z,100064.56
2022-12-06T17:29:17.592Z,100060.13
2022-12-06T17:31:45.140Z,100073.28
2022-12-06T17:34:14.040Z,100059.25
2022-12-06T17:36:43.767Z,100058.25
2022-12-06T17:39:13.832Z,100063.03
2022-12-06T17:41:58.615Z,100055.84
2022-12-06T17:44:26.514Z,100058.25
2022-12-06T17:46:54.435Z,100056.78
2022-12-06T17:49:23.630Z,100053.97
2022-12-06T17:51:52.528Z,100062.38
2022-12-06T17:54:20.595Z,100055.19
2022-12-06T17:56:49.861Z,100061.22
2022-12-06T17:59:18.955Z,100060.72
2022-12-06T18:04:34.554Z,100055.72
2022-12-06T18:07:03.418Z,100057.00
2022-12-06T18:09:30.869Z,100058.03
2022-12-06T18:11:58.502Z,100056.81
2022-12-06T18:14:25.960Z,100047.72
2022-12-06T18:16:53.820Z,100047.06
2022-12-06T18:19:22.143Z,100052.25
2022-12-06T18:21:51.992Z,100039.84
2022-12-06T18:24:23.846Z,100040.59
2022-12-06T18:26:53.135Z,100037.31
2022-12-06T18:29:22.508Z,100039.19
2022-12-06T18:31:50.448Z,100049.53
2022-12-06T18:34:18.351Z,100051.31
2022-12-06T18:36:45.938Z,100047.16
2022-12-06T18:39:15.835Z,100046.66
2022-12-06T18:41:45.551Z,100038.84
2022-12-06T18:44:13.316Z,100056.63
2022-12-06T18:46:41.870Z,100052.72
2022-12-06T18:49:11.678Z,100056.75
2022-12-06T18:51:39.618Z,100052.97
2022-12-06T18:54:07.977Z,100058.47
2022-12-06T18:56:36.370Z,100056.41
2022-12-06T18:59:08.493Z,100068.28
2022-12-06T19:01:38.500Z,100066.31
2022-12-06T19:04:07.851Z,100061.31
2022-12-06T19:06:37.072Z,100066.03
2022-12-06T19:09:06.791Z,100050.25
2022-12-06T19:11:36.877Z,100044.19
2022-12-06T19:14:06.330Z,100041.28
2022-12-06T19:16:35.974Z,100033.88
2022-12-06T19:19:07.980Z,100030.44
2022-12-06T19:21:39.048Z,100031.25
2022-12-06T19:24:07.321Z,100024.19
2022-12-06T19:26:35.346Z,100021.91
2022-12-06T19:29:03.346Z,100020.66
2022-12-06T19:31:33.111Z,100025.97
2022-12-06T19:34:00.668Z,100019.13
2022-12-06T19:36:29.878Z,100018.81
2022-12-06T19:39:01.129Z,100019.28
2022-12-06T19:41:31.291Z,100015.66
2022-12-06T19:44:17.072Z,100018.19
2022-12-06T19:46:47.383Z,100006.69
2022-12-06T19:49:15.852Z,100008.72
2022-12-06T19:51:45.832Z,100009.91
2022-12-06T19:54:15.983Z,100004.19
2022-12-06T19:56:43.455Z,99999.34
2022-12-06T19:59:12.250Z,100005.66
2022-12-06T20:01:40.672Z,100009.34
2022-12-06T20:04:10.475Z,100005.97
2022-12-06T20:06:38.855Z,100001.44
2022-12-06T20:09:06.362Z,100002.72
2022-12-06T20:11:54.319Z,100002.34
2022-12-06T20:14:22.916Z,100003.66
2022-12-06T20:16:50.681Z,100011.13
2022-12-06T20:19:20.814Z,100015.66
2022-12-06T20:21:48.577Z,99998.28
2022-12-06T20:24:20.447Z,100003.06
2022-12-06T20:26:50.125Z,99995.81
2022-12-06T20:29:18.689Z,99999.59
2022-12-06T20:31:47.936Z,99990.56
2022-12-06T20:34:15.876Z,99992.81
2022-12-06T20:36:45.012Z,99988.81
2022-12-06T20:39:19.107Z,99985.63
2022-12-06T20:41:46.541Z,99990.72
2022-12-06T20:44:14.019Z,99987.22
2022-12-06T20:46:41.553Z,99983.94
2022-12-06T20:49:10.378Z,99983.22
2022-12-06T20:51:38.513Z,99987.88
2022-12-06T20:54:08.862Z,99978.53
2022-12-06T20:56:38.992Z,99968.72
2022-12-06T20:59:07.708Z,99960.88
2022-12-06T21:01:36.937Z,99961.03
2022-12-06T21:04:04.589Z,99964.09
2022-12-06T21:06:32.018Z,99965.19
2022-12-06T21:08:59.603Z,99965.47
2022-12-06T21:11:28.467Z,99959.78
2022-12-06T21:14:02.239Z,99969.25
2022-12-06T21:16:31.388Z,99967.50
2022-12-06T21:19:00.596Z,99958.81
2022-12-06T21:21:29.847Z,99956.03
2022-12-06T21:23:59.641Z,99961.75
2022-12-06T21:26:28.752Z,99954.97
2022-12-06T21:28:57.426Z,99953.69
2022-12-06T21:31:27.162Z,99954.69
2022-12-06T21:33:54.615Z,99954.00
2022-12-06T21:36:22.065Z,99955.78
2022-12-06T21:38:49.532Z,99945.97
2022-12-06T21:41:17.144Z,99948.88
2022-12-06T21:43:45.957Z,99951.19
2022-12-06T21:46:14.952Z,99941.50
2022-12-06T21:48:45.726Z,99937.53
2022-12-06T21:51:15.315Z,99941.25
2022-12-06T21:53:42.905Z,99941.69
2022-12-06T21:56:18.592Z,99944.00
2022-12-06T21:58:47.902Z,99943.19
2022-12-06T22:01:16.664Z,99939.44
2022-12-06T22:03:44.472Z,99947.91
2022-12-06T22:06:13.773Z,99949.56
2022-12-06T22:08:42.500Z,99952.88
2022-12-06T22:11:11.735Z,99950.81
2022-12-06T22:13:39.213Z,99950.25
2022-12-06T22:16:10.231Z,99950.50
2022-12-06T22:18:44.353Z,99952.03
2022-12-06T22:21:15.595Z,99935.31
2022-12-06T22:23:43.052Z,99939.28
2022-12-06T22:26:13.499Z,99934.88
2022-12-06T22:28:40.934Z,99937.34
2022-12-06T22:31:11.717Z,99939.97
2022-12-06T22:33:39.358Z,99940.94
2022-12-06T22:36:08.097Z,99941.94
2022-12-06T22:38:35.676Z,99936.41
2022-12-06T22:41:03.664Z,99933.06
2022-12-06T22:43:31.780Z,99931.00
2022-12-06T22:46:04.833Z,99923.66
2022-12-06T22:48:35.126Z,99927.44
2022-12-06T22:51:13.280Z,99931.88
2022-12-06T22:53:41.620Z,99933.41
2022-12-06T22:56:09.503Z,99924.94
2022-12-06T22:58:37.292Z,99921.34
2022-12-06T23:01:15.947Z,99916.50
2022-12-06T23:03:46.144Z,99927.53
2022-12-06T23:06:13.714Z,99918.56
2022-12-06T23:08:41.313Z,99913.03
2022-12-06T23:11:10.729Z,99906.06
2022-12-06T23:13:38.304Z,99901.22
2022-12-06T23:16:08.654Z,99897.47
2022-12-06T23:18:36.065Z,99897.06
2022-12-06T23:21:07.203Z,99888.06
2022-12-06T23:23:34.987Z,99892.91
2022-12-06T23:26:03.564Z,99888.75
2022-12-06T23:28:31.267Z,99889.44
2022-12-06T23:31:03.258Z,99894.31
2022-12-06T23:33:32.356Z,99893.22
2022-12-06T23:36:06.609Z,99891.56
2022-12-06T23:38:34.275Z,99893.78
2022-12-06T23:41:03.159Z,99887.00
2022-12-06T23:43:30.654Z,99887.94
2022-12-06T23:46:02.058Z,99889.47
2022-12-06T23:48:33.804Z,99888.50
2022-12-06T23:51:02.224Z,99894.47
2022-12-06T23:53:31.631Z,99882.41
2022-12-06T23:55:59.998Z,99888.63
2022-12-06T23:58:28.032Z,99881.84
